Time;durP1;ratioP1;P1;durP2;ratioP2;P2;SDS_P1;SDS_P2;PMS_P1;PMS_P2;Temp;Humidity;BMP_temperature;BMP_pressure;BME280_temperature;BME280_humidity;BME280_pressure;Samples;Min_cycle;Max_cycle;Signal;HPM_P1;HPM_P2
2023/03/02 00:00:46;;;;;;;79.00;37.37;;;;;;;;;;5093705;28;20274;-48
2023/03/02 00:03:17;;;;;;;71.50;36.73;;;;;;;;;;5093593;28;20213;-48
2023/03/02 00:05:46;;;;;;;89.43;40.20;;;;;;;;;;5093825;28;20210;-48
2023/03/02 00:08:15;;;;;;;150.77;66.63;;;;;;;;;;5094778;28;20211;-47
2023/03/02 00:10:43;;;;;;;118.43;61.67;;;;;;;;;;5097134;28;20268;-49
2023/03/02 00:13:11;;;;;;;94.10;44.37;;;;;;;;;;5097994;28;20202;-47
2023/03/02 00:15:38;;;;;;;84.30;40.90;;;;;;;;;;5097706;28;20537;-47
2023/03/02 00:18:06;;;;;;;88.67;39.63;;;;;;;;;;5097928;28;20234;-51
2023/03/02 00:20:34;;;;;;;88.17;38.80;;;;;;;;;;5097746;28;20198;-48
2023/03/02 00:23:02;;;;;;;84.37;38.37;;;;;;;;;;5097859;28;20221;-51
2023/03/02 00:25:29;;;;;;;81.03;37.50;;;;;;;;;;5097716;28;20721;-47
2023/03/02 00:27:56;;;;;;;82.27;38.60;;;;;;;;;;5097414;28;20640;-51
2023/03/02 00:30:23;;;;;;;86.07;39.73;;;;;;;;;;5097274;28;20233;-48
2023/03/02 00:32:50;;;;;;;89.80;41.37;;;;;;;;;;5096813;28;20217;-47
2023/03/02 00:35:17;;;;;;;79.57;36.87;;;;;;;;;;5096624;28;20203;-47
2023/03/02 00:37:44;;;;;;;81.53;39.90;;;;;;;;;;5096468;28;20261;-50
2023/03/02 00:40:12;;;;;;;78.17;39.83;;;;;;;;;;5097177;28;20211;-49
2023/03/02 00:42:39;;;;;;;82.93;38.77;;;;;;;;;;5097261;28;20206;-47
2023/03/02 00:45:07;;;;;;;97.73;42.37;;;;;;;;;;5096972;28;20633;-47
2023/03/02 00:47:35;;;;;;;86.40;40.23;;;;;;;;;;5097191;28;20211;-48
2023/03/02 00:50:04;;;;;;;92.00;40.63;;;;;;;;;;5097200;28;20607;-48
2023/03/02 00:52:32;;;;;;;77.30;38.73;;;;;;;;;;5096977;28;20214;-50
2023/03/02 00:54:59;;;;;;;73.17;37.40;;;;;;;;;;5096824;28;20599;-48
2023/03/02 00:57:26;;;;;;;82.33;38.60;;;;;;;;;;5096744;28;20206;-48
2023/03/02 00:59:55;;;;;;;83.10;42.37;;;;;;;;;;5095893;28;20958;-50
2023/03/02 01:02:31;;;;;;;93.10;42.50;;;;;;;;;;5096114;28;20202;-47
2023/03/02 01:04:58;;;;;;;156.27;74.60;;;;;;;;;;5079372;28;20203;-48
2023/03/02 01:07:27;;;;;;;110.20;55.67;;;;;;;;;;5096650;28;20533;-48
2023/03/02 01:09:54;;;;;;;87.40;41.37;;;;;;;;;;5096569;28;20226;-49
2023/03/02 01:12:21;;;;;;;93.53;40.97;;;;;;;;;;5096360;28;20213;-46
2023/03/02 01:14:49;;;;;;;89.10;41.73;;;;;;;;;;5096783;28;20558;-48
2023/03/02 01:17:17;;;;;;;91.07;41.93;;;;;;;;;;5096314;28;20234;-47
2023/03/02 01:19:45;;;;;;;82.67;40.00;;;;;;;;;;5094284;28;20213;-48
2023/03/02 01:22:12;;;;;;;78.53;39.47;;;;;;;;;;5096379;28;20202;-48
2023/03/02 01:24:39;;;;;;;77.87;38.73;;;;;;;;;;5095616;28;20198;-48
2023/03/02 01:27:06;;;;;;;135.83;57.97;;;;;;;;;;5095685;28;20207;-46
2023/03/02 01:29:34;;;;;;;96.63;43.90;;;;;;;;;;5096252;28;20226;-48
2023/03/02 01:32:01;;;;;;;173.37;80.50;;;;;;;;;;5095466;28;20202;-48
2023/03/02 01:34:29;;;;;;;87.43;47.47;;;;;;;;;;5095638;28;20635;-48
2023/03/02 01:36:56;;;;;;;92.43;43.00;;;;;;;;;;5096064;28;20206;-47
2023/03/02 01:39:23;;;;;;;110.17;44.80;;;;;;;;;;5095404;28;20670;-48
2023/03/02 01:41:51;;;;;;;85.87;40.57;;;;;;;;;;5096252;28;20211;-47
2023/03/02 01:44:40;;;;;;;81.07;39.80;;;;;;;;;;5095159;28;20272;-49
2023/03/02 01:47:35;;;;;;;78.30;39.43;;;;;;;;;;5095784;28;20618;-48
2023/03/02 01:50:21;;;;;;;81.07;38.23;;;;;;;;;;5095010;28;20229;-50
2023/03/02 01:52:54;;;;;;;81.20;38.53;;;;;;;;;;5095900;28;20194;-50
2023/03/02 01:55:24;;;;;;;97.70;42.63;;;;;;;;;;5061896;28;20213;-48
2023/03/02 01:57:53;;;;;;;84.73;41.33;;;;;;;;;;5094792;28;20203;-47
2023/03/02 02:00:23;;;;;;;105.17;48.93;;;;;;;;;;5095067;28;20207;-47
2023/03/02 02:02:50;;;;;;;92.90;45.03;;;;;;;;;;5095896;28;20237;-50
2023/03/02 02:05:24;;;;;;;85.40;38.83;;;;;;;;;;5094758;28;20202;-49
2023/03/02 02:07:51;;;;;;;70.00;36.63;;;;;;;;;;5094624;28;20211;-50
2023/03/02 02:10:18;;;;;;;83.93;39.90;;;;;;;;;;5094556;28;20238;-47
2023/03/02 02:12:45;;;;;;;81.53;36.17;;;;;;;;;;5078158;28;20206;-48
2023/03/02 02:15:13;;;;;;;76.00;37.30;;;;;;;;;;5095615;28;20206;-50
2023/03/02 02:17:40;;;;;;;80.27;38.60;;;;;;;;;;5094423;28;20764;-47
2023/03/02 02:20:43;;;;;;;71.83;34.93;;;;;;;;;;5091704;28;20613;-47
2023/03/02 02:23:28;;;;;;;74.97;36.90;;;;;;;;;;5087523;28;20241;-50
2023/03/02 02:26:04;;;;;;;71.17;36.07;;;;;;;;;;5094178;28;20198;-47
2023/03/02 02:28:35;;;;;;;78.37;36.57;;;;;;;;;;5094676;28;20190;-47
2023/03/02 02:31:13;;;;;;;80.43;41.37;;;;;;;;;;5076896;28;20222;-48
2023/03/02 02:33:43;;;;;;;80.27;39.97;;;;;;;;;;5094418;28;20207;-47
2023/03/02 02:36:21;;;;;;;72.60;36.87;;;;;;;;;;5094900;28;20714;-48
2023/03/02 02:38:52;;;;;;;78.10;37.37;;;;;;;;;;5094939;28;20220;-48
2023/03/02 02:41:24;;;;;;;75.10;35.83;;;;;;;;;;5094229;28;20256;-51
2023/03/02 02:43:52;;;;;;;67.10;35.73;;;;;;;;;;5077206;28;20203;-50
2023/03/02 02:46:19;;;;;;;78.10;38.03;;;;;;;;;;5094099;28;20252;-52
2023/03/02 02:48:48;;;;;;;77.97;39.57;;;;;;;;;;5094087;28;20207;-47
2023/03/02 02:51:20;;;;;;;79.07;39.30;;;;;;;;;;5094715;28;20234;-47
2023/03/02 02:53:59;;;;;;;85.53;39.73;;;;;;;;;;5093913;28;20621;-48
2023/03/02 02:56:33;;;;;;;79.70;39.53;;;;;;;;;;5093986;28;20625;-47
2023/03/02 02:59:06;;;;;;;95.40;46.77;;;;;;;;;;5077304;28;20206;-47
2023/03/02 03:01:33;;;;;;;84.97;39.23;;;;;;;;;;5093942;28;20644;-47
2023/03/02 03:04:03;;;;;;;81.63;39.60;;;;;;;;;;5077055;28;20210;-47
2023/03/02 03:06:40;;;;;;;76.70;38.13;;;;;;;;;;5077144;28;20554;-47
2023/03/02 03:09:10;;;;;;;76.40;37.83;;;;;;;;;;5093461;28;20206;-47
2023/03/02 03:11:48;;;;;;;83.50;39.60;;;;;;;;;;5093730;28;20198;-49
2023/03/02 03:14:18;;;;;;;87.53;39.63;;;;;;;;;;5077061;28;20246;-49
2023/03/02 03:16:49;;;;;;;83.60;40.53;;;;;;;;;;5093325;28;20287;-51
2023/03/02 03:19:24;;;;;;;88.33;42.37;;;;;;;;;;5093233;28;20207;-49
2023/03/02 03:21:56;;;;;;;86.93;40.43;;;;;;;;;;5094622;28;20202;-48
2023/03/02 03:24:27;;;;;;;82.70;41.63;;;;;;;;;;5093419;28;20683;-47
2023/03/02 03:26:55;;;;;;;92.07;44.73;;;;;;;;;;5093293;28;20210;-48
2023/03/02 03:29:25;;;;;;;83.00;38.73;;;;;;;;;;5093041;28;20656;-47
2023/03/02 03:31:59;;;;;;;75.53;37.73;;;;;;;;;;5094337;28;20213;-52
2023/03/02 03:34:28;;;;;;;78.77;37.87;;;;;;;;;;5093366;28;20207;-47
2023/03/02 03:37:00;;;;;;;76.87;35.57;;;;;;;;;;5076424;28;20249;-48
2023/03/02 03:39:31;;;;;;;72.80;37.07;;;;;;;;;;5093005;28;20195;-46
2023/03/02 03:41:59;;;;;;;73.67;37.93;;;;;;;;;;5092780;28;20203;-47
2023/03/02 03:44:25;;;;;;;75.17;37.83;;;;;;;;;;5093868;28;20205;-48
2023/03/02 03:46:53;;;;;;;85.73;40.10;;;;;;;;;;5093076;28;20542;-47
2023/03/02 03:49:20;;;;;;;83.93;39.93;;;;;;;;;;5093156;28;20210;-47
2023/03/02 03:51:48;;;;;;;77.47;40.23;;;;;;;;;;5092976;28;20255;-47
2023/03/02 03:54:15;;;;;;;80.97;39.53;;;;;;;;;;5090504;28;20221;-51
2023/03/02 03:56:45;;;;;;;78.47;40.17;;;;;;;;;;5083214;28;20641;-48
2023/03/02 03:59:17;;;;;;;81.77;39.47;;;;;;;;;;5073025;28;20187;-48
2023/03/02 04:01:51;;;;;;;86.07;39.73;;;;;;;;;;5073054;28;20230;-47
2023/03/02 04:04:28;;;;;;;85.23;41.77;;;;;;;;;;5072890;28;20211;-48
2023/03/02 04:06:56;;;;;;;86.30;41.60;;;;;;;;;;5072671;28;20707;-47
2023/03/02 04:09:24;;;;;;;80.07;41.00;;;;;;;;;;5072887;28;20248;-47
2023/03/02 04:11:55;;;;;;;82.97;42.87;;;;;;;;;;5072523;28;20227;-48
2023/03/02 04:14:23;;;;;;;85.47;42.03;;;;;;;;;;5072759;28;20216;-47
2023/03/02 04:16:52;;;;;;;89.97;42.87;;;;;;;;;;5072610;28;20239;-47
2023/03/02 04:19:21;;;;;;;88.23;42.90;;;;;;;;;;5072478;28;20253;-48
2023/03/02 04:21:53;;;;;;;84.33;44.83;;;;;;;;;;5072546;28;20216;-47
2023/03/02 04:24:22;;;;;;;89.50;46.13;;;;;;;;;;5072464;28;20200;-52
2023/03/02 04:26:52;;;;;;;98.97;47.07;;;;;;;;;;5072712;28;20215;-51
2023/03/02 04:29:20;;;;;;;105.63;50.83;;;;;;;;;;5072695;28;20685;-47
2023/03/02 04:31:47;;;;;;;111.70;52.67;;;;;;;;;;5081864;28;20672;-53
2023/03/02 04:34:15;;;;;;;111.57;52.83;;;;;;;;;;5096796;28;20203;-53
2023/03/02 04:36:44;;;;;;;108.43;51.80;;;;;;;;;;5088930;28;20215;-54
2023/03/02 04:39:15;;;;;;;118.80;57.70;;;;;;;;;;5089939;28;20199;-47
2023/03/02 04:41:45;;;;;;;136.17;60.30;;;;;;;;;;5089745;28;20260;-47
2023/03/02 04:44:14;;;;;;;136.13;60.23;;;;;;;;;;5089543;28;20199;-47
2023/03/02 04:46:41;;;;;;;135.33;62.53;;;;;;;;;;5084512;28;20646;-48
2023/03/02 04:49:11;;;;;;;134.80;59.50;;;;;;;;;;5088623;28;20203;-53
2023/03/02 04:51:42;;;;;;;221.20;60.53;;;;;;;;;;5089903;28;20223;-47
2023/03/02 04:54:22;;;;;;;210.40;57.47;;;;;;;;;;5089976;28;20199;-48
2023/03/02 04:56:52;;;;;;;257.03;58.63;;;;;;;;;;5094789;28;20791;-47
2023/03/02 04:59:22;;;;;;;248.67;62.57;;;;;;;;;;5085757;28;20295;-49
2023/03/02 05:01:52;;;;;;;323.57;67.03;;;;;;;;;;5089130;28;20313;-47
2023/03/02 05:04:19;;;;;;;303.87;66.07;;;;;;;;;;5089150;28;20218;-47
2023/03/02 05:06:47;;;;;;;278.33;69.90;;;;;;;;;;5097078;28;20234;-47
2023/03/02 05:09:14;;;;;;;336.70;69.13;;;;;;;;;;5096770;28;20236;-47
2023/03/02 05:11:42;;;;;;;309.27;62.00;;;;;;;;;;5090510;28;20262;-45
2023/03/02 05:14:11;;;;;;;345.87;67.90;;;;;;;;;;5090538;28;20219;-46
2023/03/02 05:16:40;;;;;;;378.80;71.30;;;;;;;;;;5087889;28;20239;-47
2023/03/02 05:19:10;;;;;;;371.40;65.77;;;;;;;;;;5076712;28;20223;-47
2023/03/02 05:21:38;;;;;;;377.00;65.17;;;;;;;;;;5076381;28;20246;-46
2023/03/02 05:24:05;;;;;;;319.63;67.87;;;;;;;;;;5080967;28;20226;-46
2023/03/02 05:26:33;;;;;;;386.37;66.53;;;;;;;;;;5096546;28;20223;-47
2023/03/02 05:29:00;;;;;;;376.63;74.20;;;;;;;;;;5096307;28;20719;-46
2023/03/02 05:31:39;;;;;;;427.97;75.03;;;;;;;;;;5096130;28;20277;-46
2023/03/02 05:34:08;;;;;;;309.53;67.07;;;;;;;;;;5096468;28;20227;-47
2023/03/02 05:36:36;;;;;;;374.90;69.87;;;;;;;;;;5096010;28;20280;-48
2023/03/02 05:39:04;;;;;;;342.77;69.00;;;;;;;;;;5096195;28;20236;-48
2023/03/02 05:41:32;;;;;;;228.70;67.03;;;;;;;;;;5094571;28;20265;-50
2023/03/02 05:43:59;;;;;;;389.53;73.90;;;;;;;;;;5095535;28;20215;-48
2023/03/02 05:46:27;;;;;;;294.10;67.03;;;;;;;;;;5094083;28;20276;-50
2023/03/02 05:48:54;;;;;;;221.90;65.57;;;;;;;;;;5094460;28;20226;-47
2023/03/02 05:51:21;;;;;;;430.00;71.33;;;;;;;;;;5095309;28;20242;-47
2023/03/02 05:53:48;;;;;;;318.30;66.90;;;;;;;;;;5094833;28;20242;-49
2023/03/02 05:56:16;;;;;;;410.57;65.97;;;;;;;;;;5094071;28;20562;-48
2023/03/02 05:58:43;;;;;;;341.83;64.97;;;;;;;;;;5093903;28;20231;-46
2023/03/02 06:01:10;;;;;;;333.53;64.53;;;;;;;;;;5094130;28;20599;-47
2023/03/02 06:03:42;;;;;;;315.57;62.77;;;;;;;;;;5094578;28;20689;-46
2023/03/02 06:06:12;;;;;;;331.20;58.43;;;;;;;;;;5092392;28;20231;-51
2023/03/02 06:08:41;;;;;;;308.83;58.10;;;;;;;;;;5093575;28;20222;-47
2023/03/02 06:11:09;;;;;;;288.43;58.03;;;;;;;;;;5095084;28;20295;-45
2023/03/02 06:13:37;;;;;;;337.67;61.40;;;;;;;;;;5088298;28;20226;-47
2023/03/02 06:16:04;;;;;;;249.10;57.07;;;;;;;;;;5089562;28;20234;-47
2023/03/02 06:18:32;;;;;;;235.90;52.33;;;;;;;;;;5077335;28;20547;-46
2023/03/02 06:20:59;;;;;;;225.27;51.47;;;;;;;;;;5074442;28;20249;-49
2023/03/02 06:23:26;;;;;;;247.03;53.17;;;;;;;;;;5091189;28;20283;-46
2023/03/02 06:25:54;;;;;;;261.63;52.60;;;;;;;;;;5094416;28;20215;-46
2023/03/02 06:28:21;;;;;;;186.67;51.33;;;;;;;;;;5093783;28;20227;-45
2023/03/02 06:30:48;;;;;;;139.97;45.70;;;;;;;;;;5094471;28;20668;-48
2023/03/02 06:33:17;;;;;;;184.47;51.47;;;;;;;;;;5094211;28;20539;-46
2023/03/02 06:35:45;;;;;;;234.77;44.23;;;;;;;;;;5094890;28;20730;-47
2023/03/02 06:38:12;;;;;;;274.90;43.80;;;;;;;;;;5094514;28;20523;-48
2023/03/02 06:40:39;;;;;;;219.87;46.20;;;;;;;;;;5094800;28;20335;-49
2023/03/02 06:43:06;;;;;;;180.23;48.03;;;;;;;;;;5094449;28;20551;-46
2023/03/02 06:45:33;;;;;;;177.43;47.00;;;;;;;;;;5091546;28;20245;-46
2023/03/02 06:48:01;;;;;;;271.53;46.80;;;;;;;;;;5094791;28;20230;-47
2023/03/02 06:50:28;;;;;;;244.23;45.60;;;;;;;;;;5094167;28;21444;-46
2023/03/02 06:52:55;;;;;;;161.30;44.37;;;;;;;;;;5092140;28;20219;-47
2023/03/02 06:55:23;;;;;;;146.50;43.33;;;;;;;;;;5094255;28;20222;-48
2023/03/02 06:57:50;;;;;;;164.93;45.30;;;;;;;;;;5093819;28;20222;-51
2023/03/02 07:00:23;;;;;;;237.23;45.70;;;;;;;;;;5094280;28;20215;-52
2023/03/02 07:02:52;;;;;;;160.03;46.53;;;;;;;;;;5093374;28;20217;-46
2023/03/02 07:05:20;;;;;;;157.87;42.13;;;;;;;;;;5095068;28;20194;-46
2023/03/02 07:07:47;;;;;;;148.73;43.20;;;;;;;;;;5086310;28;20313;-46
2023/03/02 07:10:15;;;;;;;134.00;39.87;;;;;;;;;;5094095;28;20299;-47
2023/03/02 07:12:42;;;;;;;141.03;42.60;;;;;;;;;;5093556;28;20256;-46
2023/03/02 07:15:11;;;;;;;131.70;40.73;;;;;;;;;;5094161;28;20291;-47
2023/03/02 07:17:38;;;;;;;191.50;43.93;;;;;;;;;;5093759;28;20233;-46
2023/03/02 07:20:06;;;;;;;149.70;43.13;;;;;;;;;;5094121;28;20287;-46
2023/03/02 07:22:33;;;;;;;143.77;41.40;;;;;;;;;;5091563;28;20233;-47
2023/03/02 07:25:00;;;;;;;183.43;40.70;;;;;;;;;;5093850;28;20226;-48
2023/03/02 07:27:27;;;;;;;146.33;39.70;;;;;;;;;;5091307;28;20225;-46
2023/03/02 07:29:54;;;;;;;162.20;39.33;;;;;;;;;;5094247;28;20234;-47
2023/03/02 07:32:21;;;;;;;197.97;41.20;;;;;;;;;;5094299;28;20634;-46
2023/03/02 07:34:49;;;;;;;126.40;41.07;;;;;;;;;;5093722;28;20222;-46
2023/03/02 07:37:16;;;;;;;135.20;41.20;;;;;;;;;;5093794;28;20238;-47
2023/03/02 07:39:43;;;;;;;154.03;39.57;;;;;;;;;;5093528;28;20649;-48
2023/03/02 07:42:11;;;;;;;140.03;42.43;;;;;;;;;;5093648;28;20703;-47
2023/03/02 07:44:41;;;;;;;135.10;43.03;;;;;;;;;;5092740;28;20236;-46
2023/03/02 07:47:08;;;;;;;145.97;42.97;;;;;;;;;;5092774;28;20310;-48
2023/03/02 07:49:35;;;;;;;141.10;42.53;;;;;;;;;;5094199;28;20231;-47
2023/03/02 07:52:03;;;;;;;143.47;41.47;;;;;;;;;;5092960;28;20237;-47
2023/03/02 07:54:31;;;;;;;154.40;42.77;;;;;;;;;;5093536;28;20245;-47
2023/03/02 07:56:58;;;;;;;160.27;43.20;;;;;;;;;;5093174;28;20223;-46
2023/03/02 07:59:27;;;;;;;174.10;44.27;;;;;;;;;;5090571;28;20240;-46
2023/03/02 08:01:55;;;;;;;154.27;41.70;;;;;;;;;;5093360;28;20226;-47
2023/03/02 08:04:23;;;;;;;125.63;40.93;;;;;;;;;;5093238;28;20218;-48
2023/03/02 08:06:50;;;;;;;150.20;42.50;;;;;;;;;;5092416;28;20291;-46
2023/03/02 08:09:17;;;;;;;136.77;40.47;;;;;;;;;;5093227;28;20256;-50
2023/03/02 08:11:46;;;;;;;131.50;40.13;;;;;;;;;;5090384;28;20321;-47
2023/03/02 08:14:13;;;;;;;127.33;38.97;;;;;;;;;;5093353;28;20230;-46
2023/03/02 08:16:40;;;;;;;131.00;40.00;;;;;;;;;;5092766;28;20340;-45
2023/03/02 08:19:08;;;;;;;126.50;38.40;;;;;;;;;;5092775;28;20312;-46
2023/03/02 08:21:35;;;;;;;122.70;38.40;;;;;;;;;;5092905;28;20229;-47
2023/03/02 08:24:02;;;;;;;113.10;38.10;;;;;;;;;;5092744;28;20218;-48
2023/03/02 08:26:30;;;;;;;119.97;37.60;;;;;;;;;;5093070;28;20221;-46
2023/03/02 08:28:57;;;;;;;115.03;38.57;;;;;;;;;;5094074;28;20707;-45
2023/03/02 08:31:24;;;;;;;115.93;37.07;;;;;;;;;;5096699;28;20226;-45
2023/03/02 08:33:52;;;;;;;95.70;32.40;;;;;;;;;;5095893;28;20275;-45
2023/03/02 08:36:19;;;;;;;96.73;35.00;;;;;;;;;;5096705;28;20218;-46
2023/03/02 08:38:48;;;;;;;100.53;34.73;;;;;;;;;;5097095;28;20680;-46
2023/03/02 08:41:18;;;;;;;104.87;35.30;;;;;;;;;;5097724;28;20234;-46
2023/03/02 08:43:46;;;;;;;131.73;49.17;;;;;;;;;;5097071;28;20226;-46
2023/03/02 08:46:15;;;;;;;102.33;44.40;;;;;;;;;;5097086;28;20238;-46
2023/03/02 08:48:43;;;;;;;111.40;43.13;;;;;;;;;;5097171;28;20237;-45
2023/03/02 08:51:13;;;;;;;87.30;33.60;;;;;;;;;;5096640;28;20276;-47
2023/03/02 08:53:42;;;;;;;84.70;32.73;;;;;;;;;;5097081;28;20517;-47
2023/03/02 08:56:27;;;;;;;79.40;31.83;;;;;;;;;;5097214;28;20277;-49
2023/03/02 08:58:59;;;;;;;89.17;32.83;;;;;;;;;;5096633;28;20234;-46
2023/03/02 09:01:32;;;;;;;80.27;31.97;;;;;;;;;;5076931;28;20234;-46
2023/03/02 09:04:01;;;;;;;72.00;29.90;;;;;;;;;;5076754;28;20226;-46
2023/03/02 09:06:29;;;;;;;75.03;27.87;;;;;;;;;;5076135;28;20235;-47
2023/03/02 09:08:56;;;;;;;63.53;27.80;;;;;;;;;;5095492;28;20214;-46
2023/03/02 09:11:24;;;;;;;68.33;27.57;;;;;;;;;;5094429;28;20710;-45
2023/03/02 09:13:52;;;;;;;63.47;28.50;;;;;;;;;;5096263;28;20222;-46
2023/03/02 09:16:19;;;;;;;71.47;29.67;;;;;;;;;;5093469;28;20227;-46
2023/03/02 09:18:46;;;;;;;64.50;30.33;;;;;;;;;;5096225;28;20223;-45
2023/03/02 09:21:14;;;;;;;69.93;28.93;;;;;;;;;;5095651;28;20222;-45
2023/03/02 09:23:41;;;;;;;60.87;27.53;;;;;;;;;;5096361;28;20215;-46
2023/03/02 09:26:08;;;;;;;67.07;28.93;;;;;;;;;;5096145;28;20222;-46
2023/03/02 09:28:36;;;;;;;65.33;28.37;;;;;;;;;;5096134;28;20223;-46
2023/03/02 09:31:05;;;;;;;59.43;26.10;;;;;;;;;;5096154;28;20234;-46
2023/03/02 09:33:33;;;;;;;55.77;26.63;;;;;;;;;;5096142;28;20231;-46
2023/03/02 09:36:05;;;;;;;59.57;25.30;;;;;;;;;;5095628;28;20237;-49
2023/03/02 09:38:32;;;;;;;62.57;27.70;;;;;;;;;;5095339;28;20231;-45
2023/03/02 09:41:18;;;;;;;58.40;26.60;;;;;;;;;;5094872;28;20287;-46
2023/03/02 09:43:54;;;;;;;52.60;23.47;;;;;;;;;;5096436;28;20230;-46
2023/03/02 09:46:30;;;;;;;54.67;23.67;;;;;;;;;;5097030;28;20187;-47
2023/03/02 09:49:40;;;;;;;60.63;25.80;;;;;;;;;;5096325;28;20206;-46
2023/03/02 09:52:30;;;;;;;59.03;26.37;;;;;;;;;;5085545;28;20321;-46
2023/03/02 09:55:12;;;;;;;57.50;24.30;;;;;;;;;;5095001;28;20585;-47
2023/03/02 09:57:39;;;;;;;54.87;23.03;;;;;;;;;;5094786;28;20238;-45
2023/03/02 10:00:49;;;;;;;54.67;23.77;;;;;;;;;;5095321;28;20574;-46
2023/03/02 10:03:22;;;;;;;59.93;23.87;;;;;;;;;;5073758;28;20242;-45
2023/03/02 10:05:54;;;;;;;52.63;23.30;;;;;;;;;;5056231;28;20708;-46
2023/03/02 10:08:24;;;;;;;49.80;22.43;;;;;;;;;;5073958;28;20227;-45
2023/03/02 10:11:10;;;;;;;50.40;23.50;;;;;;;;;;5073161;28;20230;-47
2023/03/02 10:13:45;;;;;;;48.80;21.90;;;;;;;;;;5073342;28;20766;-46
2023/03/02 10:16:31;;;;;;;51.53;22.13;;;;;;;;;;5073054;28;20243;-47
2023/03/02 10:19:12;;;;;;;52.13;22.40;;;;;;;;;;5072857;28;20264;-48
2023/03/02 10:21:42;;;;;;;55.07;24.00;;;;;;;;;;5054643;28;20227;-45
2023/03/02 10:24:28;;;;;;;45.00;21.13;;;;;;;;;;5073288;28;20799;-45
2023/03/02 10:27:27;;;;;;;53.73;22.37;;;;;;;;;;5072809;28;20238;-45
2023/03/02 10:30:26;;;;;;;53.70;21.53;;;;;;;;;;5073182;28;20227;-45
2023/03/02 10:32:57;;;;;;;50.43;20.60;;;;;;;;;;5061508;28;20246;-46
2023/03/02 10:35:25;;;;;;;47.93;21.53;;;;;;;;;;5081957;28;20544;-46
2023/03/02 10:37:57;;;;;;;50.47;20.97;;;;;;;;;;5094710;28;20227;-46
2023/03/02 10:40:42;;;;;;;47.90;20.80;;;;;;;;;;5094495;28;20242;-45
2023/03/02 10:43:29;;;;;;;53.67;22.67;;;;;;;;;;5095829;28;20218;-46
2023/03/02 10:46:00;;;;;;;51.57;21.70;;;;;;;;;;5095939;28;20206;-47
2023/03/02 10:48:27;;;;;;;60.97;22.63;;;;;;;;;;5095412;28;20195;-46
2023/03/02 10:50:57;;;;;;;57.43;24.43;;;;;;;;;;5095612;28;20206;-46
2023/03/02 10:53:24;;;;;;;58.13;24.87;;;;;;;;;;5094254;28;20226;-47
2023/03/02 10:55:52;;;;;;;56.27;24.37;;;;;;;;;;5094810;28;20215;-45
2023/03/02 10:58:31;;;;;;;58.07;24.57;;;;;;;;;;5095217;28;20202;-48
2023/03/02 11:01:01;;;;;;;57.40;25.27;;;;;;;;;;5095736;28;20214;-47
2023/03/02 11:03:29;;;;;;;57.00;23.50;;;;;;;;;;5095348;28;20213;-47
2023/03/02 11:05:59;;;;;;;61.93;24.47;;;;;;;;;;5095384;28;20202;-47
2023/03/02 11:08:27;;;;;;;59.57;24.67;;;;;;;;;;5095772;28;20202;-47
2023/03/02 11:11:00;;;;;;;54.60;22.07;;;;;;;;;;5095304;28;20256;-46
2023/03/02 11:13:34;;;;;;;54.73;22.97;;;;;;;;;;5095479;28;20253;-48
2023/03/02 11:16:17;;;;;;;56.77;22.43;;;;;;;;;;5094891;28;20255;-50
2023/03/02 11:18:50;;;;;;;57.43;22.77;;;;;;;;;;5095432;28;20236;-51
2023/03/02 11:21:24;;;;;;;56.83;22.50;;;;;;;;;;5094892;28;20214;-50
2023/03/02 11:24:05;;;;;;;59.57;24.13;;;;;;;;;;5094759;28;20526;-47
2023/03/02 11:26:35;;;;;;;58.63;23.70;;;;;;;;;;5094152;28;20217;-46
2023/03/02 11:29:09;;;;;;;51.77;22.13;;;;;;;;;;5094995;28;20204;-47
2023/03/02 11:31:44;;;;;;;64.33;24.00;;;;;;;;;;5094030;28;20597;-45
2023/03/02 11:34:32;;;;;;;59.57;24.17;;;;;;;;;;5094359;28;20639;-47
2023/03/02 11:37:19;;;;;;;53.23;22.00;;;;;;;;;;5094701;28;20202;-46
2023/03/02 11:39:46;;;;;;;62.87;23.10;;;;;;;;;;5094010;28;20195;-46
2023/03/02 11:42:28;;;;;;;49.07;22.47;;;;;;;;;;5094715;28;20267;-49
2023/03/02 11:44:57;;;;;;;50.20;20.87;;;;;;;;;;5094890;28;20549;-46
2023/03/02 11:47:24;;;;;;;57.40;24.17;;;;;;;;;;5093837;28;20210;-47
2023/03/02 11:49:54;;;;;;;56.10;22.90;;;;;;;;;;5093973;28;20220;-46
2023/03/02 11:52:24;;;;;;;57.20;23.20;;;;;;;;;;5094906;28;20321;-45
2023/03/02 11:54:56;;;;;;;54.57;22.97;;;;;;;;;;5095015;28;20202;-45
2023/03/02 11:57:31;;;;;;;55.83;23.63;;;;;;;;;;5093783;28;20202;-46
2023/03/02 11:59:59;;;;;;;48.73;21.73;;;;;;;;;;5094080;28;20179;-47
2023/03/02 12:02:27;;;;;;;48.87;22.20;;;;;;;;;;5093842;28;20230;-47
2023/03/02 12:05:04;;;;;;;54.30;22.90;;;;;;;;;;5096835;28;20210;-50
2023/03/02 12:07:31;;;;;;;61.27;25.00;;;;;;;;;;5098729;28;20202;-46
2023/03/02 12:10:23;;;;;;;64.73;26.10;;;;;;;;;;5098890;28;20710;-46
2023/03/02 12:13:02;;;;;;;60.77;26.73;;;;;;;;;;5098805;28;20258;-45
2023/03/02 12:15:51;;;;;;;62.73;24.93;;;;;;;;;;5098825;28;20198;-46
2023/03/02 12:18:21;;;;;;;49.30;23.33;;;;;;;;;;5099051;28;20190;-47
2023/03/02 12:21:04;;;;;;;55.63;23.53;;;;;;;;;;5098496;28;20659;-47
2023/03/02 12:23:34;;;;;;;58.77;24.77;;;;;;;;;;5098733;28;20202;-46
2023/03/02 12:26:19;;;;;;;58.80;24.97;;;;;;;;;;5098494;28;20206;-47
2023/03/02 12:29:08;;;;;;;58.33;23.17;;;;;;;;;;5098345;28;20199;-46
2023/03/02 12:31:49;;;;;;;55.03;24.87;;;;;;;;;;5098346;28;20632;-47
2023/03/02 12:34:22;;;;;;;58.80;24.97;;;;;;;;;;5098585;28;20533;-45
2023/03/02 12:36:55;;;;;;;48.63;22.13;;;;;;;;;;5098225;28;20206;-46
2023/03/02 12:39:37;;;;;;;54.90;24.50;;;;;;;;;;5097779;28;20589;-46
2023/03/02 12:42:26;;;;;;;63.77;25.47;;;;;;;;;;5098178;28;20283;-47
2023/03/02 12:45:03;;;;;;;56.33;24.83;;;;;;;;;;5098356;28;20583;-46
2023/03/02 12:47:31;;;;;;;56.03;22.60;;;;;;;;;;5098267;28;20205;-46
2023/03/02 12:50:05;;;;;;;52.27;20.70;;;;;;;;;;5097900;28;20237;-46
2023/03/02 12:52:34;;;;;;;55.77;24.00;;;;;;;;;;5097801;28;20291;-45
2023/03/02 12:55:19;;;;;;;58.93;25.27;;;;;;;;;;5097938;28;20633;-46
2023/03/02 12:57:51;;;;;;;53.60;24.13;;;;;;;;;;5097949;28;20206;-47
2023/03/02 13:00:21;;;;;;;51.87;22.87;;;;;;;;;;5097850;28;20272;-46
2023/03/02 13:02:51;;;;;;;57.77;21.97;;;;;;;;;;5097510;28;20706;-52
2023/03/02 13:05:22;;;;;;;47.50;19.87;;;;;;;;;;5093199;28;20622;-53
2023/03/02 13:07:59;;;;;;;43.40;21.10;;;;;;;;;;5082661;28;20191;-48
2023/03/02 13:10:43;;;;;;;59.77;24.47;;;;;;;;;;5077055;28;20217;-49
2023/03/02 13:13:25;;;;;;;52.57;21.30;;;;;;;;;;5091010;28;20230;-52
2023/03/02 13:15:56;;;;;;;44.70;18.40;;;;;;;;;;5076819;28;20215;-50
2023/03/02 13:18:30;;;;;;;58.63;24.03;;;;;;;;;;5077527;28;20685;-50
2023/03/02 13:20:58;;;;;;;47.83;22.90;;;;;;;;;;5076603;28;20195;-49
2023/03/02 13:23:27;;;;;;;61.77;24.60;;;;;;;;;;5086174;28;20531;-49
2023/03/02 13:25:57;;;;;;;66.30;25.33;;;;;;;;;;5077265;28;20203;-49
2023/03/02 13:28:36;;;;;;;65.23;24.47;;;;;;;;;;5076905;28;20192;-49
2023/03/02 13:31:06;;;;;;;39.40;17.40;;;;;;;;;;5076712;28;20214;-49
2023/03/02 13:33:34;;;;;;;40.10;17.80;;;;;;;;;;5083655;28;20221;-52
2023/03/02 13:36:02;;;;;;;34.70;15.40;;;;;;;;;;5086113;28;20607;-51
2023/03/02 13:38:35;;;;;;;40.30;16.50;;;;;;;;;;5093841;28;20305;-51
2023/03/02 13:41:02;;;;;;;54.67;19.50;;;;;;;;;;5085275;28;20222;-53
2023/03/02 13:43:34;;;;;;;40.80;15.90;;;;;;;;;;5087582;28;20272;-52
2023/03/02 13:46:01;;;;;;;29.53;13.83;;;;;;;;;;5086372;28;20302;-49
2023/03/02 13:48:29;;;;;;;29.57;13.73;;;;;;;;;;5094297;28;20218;-52
2023/03/02 13:51:01;;;;;;;32.93;15.37;;;;;;;;;;5094282;28;20222;-53
2023/03/02 13:53:33;;;;;;;34.70;15.47;;;;;;;;;;5095909;28;20234;-53
2023/03/02 13:56:00;;;;;;;32.50;15.87;;;;;;;;;;5095084;28;20322;-53
2023/03/02 13:58:28;;;;;;;33.13;14.60;;;;;;;;;;5095657;28;20226;-51
2023/03/02 14:00:55;;;;;;;34.47;15.20;;;;;;;;;;5094517;28;20231;-54
2023/03/02 14:03:27;;;;;;;29.23;13.67;;;;;;;;;;5094671;28;20299;-55
2023/03/02 14:05:57;;;;;;;40.07;17.13;;;;;;;;;;5093562;28;20225;-53
2023/03/02 14:08:25;;;;;;;33.93;16.87;;;;;;;;;;5093668;28;20241;-55
2023/03/02 14:10:56;;;;;;;37.93;17.57;;;;;;;;;;5094043;28;20230;-54
2023/03/02 14:13:28;;;;;;;35.17;16.53;;;;;;;;;;5093728;28;20279;-52
2023/03/02 14:15:55;;;;;;;40.67;17.20;;;;;;;;;;5093438;28;20265;-55
2023/03/02 14:18:27;;;;;;;37.90;17.10;;;;;;;;;;5093553;28;20246;-54
2023/03/02 14:20:55;;;;;;;35.60;14.67;;;;;;;;;;5092852;28;20258;-54
2023/03/02 14:23:24;;;;;;;39.33;18.17;;;;;;;;;;5095248;28;20245;-52
2023/03/02 14:25:52;;;;;;;38.43;18.50;;;;;;;;;;5094828;28;20226;-55
2023/03/02 14:28:25;;;;;;;35.77;16.67;;;;;;;;;;5094665;28;20222;-51
2023/03/02 14:30:55;;;;;;;37.03;17.33;;;;;;;;;;5094352;28;20533;-52
2023/03/02 14:33:23;;;;;;;35.50;17.00;;;;;;;;;;5094651;28;20825;-52
2023/03/02 14:35:52;;;;;;;34.33;16.20;;;;;;;;;;5094594;28;20227;-53